D. Carlos I — CTHJ — position and weather

sailwx.info

Track history (hours):
 
Tides and Currents Weather Stations Pressure Air Temp Water Temp Dewpoint Dewpoint Depression Visibility Wind Speed Wind Dir Waves Ship Positions

Oceanographic research ship D. Carlos I (Portugal)

Detailed information on ship capabilities available from University of Delaware's Ocean Information Center.

Last reported at 2017-Aug-31 14:44 UTC. Time now 2017-Sep-26 18:09 UTC.
Position N 38°40' W 009°09'.
Warning: this ship's position is 26 days out of date.

Length 70 m; draft 6 m.

Type: Other ship. MMSI: 263144000.

Date/timePositionNaut miles runAvg speedWind from/ knotsBaromVisibWave heightAir tempDewpointWater temp
2017-Aug-31 14:44N 38°40' W 009°09'0 0.5
2017-Aug-31 14:31N 38°40' W 009°09'1 2.8
2017-Aug-31 14:01N 38°42' W 009°09'4 6.3
2017-Aug-31 13:23N 38°41' W 009°14'3 6.7
2017-Aug-31 13:00N 38°41' W 009°17'3 6.9
2017-Aug-31 12:31N 38°39' W 009°21'4 7.5
2017-Aug-31 12:00N 38°36' W 009°24'4 7.6
2017-Aug-31 11:31N 38°35' W 009°29'4 7.4
2017-Aug-31 11:01N 38°35' W 009°34'4 7.5
2017-Aug-31 10:30N 38°35' W 009°38'4 7.6
2017-Aug-31 10:00N 38°35' W 009°43'4 7.4
2017-Aug-31 09:31N 38°34' W 009°48'4 7.8
2017-Aug-31 09:00N 38°34' W 009°53'4 7.8
2017-Aug-31 08:30N 38°34' W 009°58'4 7.4
2017-Aug-31 08:00N 38°33' W 010°03'4 7.4
2017-Aug-31 07:30N 38°33' W 010°07'6 7.8
2017-Aug-31 06:42N 38°33' W 010°15'4 7.9
2017-Aug-31 06:14N 38°33' W 010°20'  
2017-Aug-27 07:34N 38°42' W 025°21'0 7.0
2017-Aug-27 07:30N 38°42' W 025°22'4 7.0
2017-Aug-27 06:53N 38°43' W 025°27'3 6.8
2017-Aug-27 06:28N 38°43' W 025°31'3 6.8
2017-Aug-27 06:00N 38°43' W 025°35'4 6.9
2017-Aug-27 05:28N 38°43' W 025°40'11 6.9
2017-Aug-27 03:53N 38°43' W 025°54'3 7.3
2017-Aug-27 03:30N 38°43' W 025°58'4 7.2
2017-Aug-27 02:59N 38°43' W 026°02'3 6.9
2017-Aug-27 02:30N 38°43' W 026°06'3 6.5
2017-Aug-27 02:00N 38°43' W 026°11'3 6.7
2017-Aug-27 01:30N 38°43' W 026°15'3 6.6
2017-Aug-27 01:00N 38°43' W 026°19'4 6.6
2017-Aug-27 00:21N 38°43' W 026°25'4 6.8
2017-Aug-26 23:47N 38°43' W 026°30'2 7.0
2017-Aug-26 23:29N 38°43' W 026°32'38 0.9
2017-Aug-25 04:59N 38°23' W 027°14'3 6.9
2017-Aug-25 04:30N 38°20' W 027°16'3 6.5
2017-Aug-25 03:59N 38°18' W 027°19'13 6.9
2017-Aug-25 02:03N 38°07' W 027°29'22 6.9
2017-Aug-24 22:51N 37°48' W 027°45'3 9.1
2017-Aug-24 22:30N 37°46' W 027°42'6 9.7
2017-Aug-24 21:53N 37°41' W 027°47'615.3
2017-Aug-24 21:30N 37°37' W 027°52'1019.6
2017-Aug-24 21:01N 37°45' W 027°45'5 9.4
2017-Aug-24 20:30N 37°46' W 027°39'4 8.9
2017-Aug-24 20:00N 37°50' W 027°37'3 6.0
2017-Aug-24 19:30N 37°48' W 027°34'3 5.5
2017-Aug-24 19:00N 37°47' W 027°31'510.1
2017-Aug-24 18:30N 37°49' W 027°25'5 9.7
2017-Aug-24 18:00N 37°54' W 027°24'712.6
2017-Aug-24 17:29N 37°59' W 027°18'7 5.2
2017-Aug-24 16:05N 38°01' W 027°09'628.2
2017-Aug-24 15:52N 38°04' W 027°03'3 5.8
2017-Aug-24 15:22N 38°06' W 027°05'513.8
2017-Aug-24 15:00N 38°06' W 026°59'4 8.4
2017-Aug-24 14:30N 38°09' W 026°55'4 7.8
2017-Aug-24 14:00N 38°10' W 026°50'1 1.1
2017-Aug-24 13:29N 38°10' W 026°51'2 5.1
2017-Aug-24 13:00N 38°08' W 026°48'510.0
2017-Aug-24 12:30N 38°05' W 026°43'3 6.9
2017-Aug-24 12:00N 38°03' W 026°40'4 7.6
2017-Aug-24 11:30N 38°01' W 026°36'3 6.8
2017-Aug-24 11:01N 38°02' W 026°32'4 8.1
2017-Aug-24 10:30N 37°58' W 026°30'511.1
2017-Aug-24 10:00N 37°53' W 026°26'3 5.8
2017-Aug-24 09:31N 37°54' W 026°23'510.2
2017-Aug-24 09:00N 37°50' W 026°19'3 6.6
2017-Aug-24 08:29N 37°51' W 026°14'3 7.2
2017-Aug-24 08:00N 37°48' W 026°11'3 5.8
2017-Aug-24 07:30N 37°47' W 026°08'816.7
2017-Aug-24 07:01N 37°40' W 026°03'3 6.4
2017-Aug-24 06:30N 37°38' W 025°60'2 4.8
2017-Aug-24 06:00N 37°39' W 025°57'4 7.7
2017-Aug-24 05:30N 37°40' W 025°52'5 9.8
2017-Aug-24 05:01N 37°35' W 025°51'510.1
2017-Aug-24 04:30N 37°30' W 025°51'6 5.3
2017-Aug-24 03:28N 37°24' W 025°50'3 6.6
2017-Aug-24 03:01N 37°21' W 025°49'4 7.2
2017-Aug-24 02:30N 37°18' W 025°46'4 7.1
2017-Aug-24 02:00N 37°15' W 025°44'4 7.2
2017-Aug-24 01:30N 37°12' W 025°41'3 6.9
2017-Aug-24 01:00N 37°10' W 025°39'4 7.2
2017-Aug-24 00:30N 37°07' W 025°36'4 7.2
2017-Aug-24 00:00N 37°04' W 025°33'4 7.4
2017-Aug-23 23:31N 37°01' W 025°31'4 7.3
2017-Aug-23 23:00N 36°58' W 025°28'4 7.3
2017-Aug-23 22:30N 36°55' W 025°25'4 7.1
2017-Aug-23 22:00N 36°52' W 025°23'4 7.2
2017-Aug-23 21:30N 36°48' W 025°23'4 7.1
2017-Aug-23 21:00N 36°45' W 025°23'3 6.9
2017-Aug-23 20:30N 36°41' W 025°23'4 7.1
2017-Aug-23 20:00N 36°38' W 025°23'4 7.0
2017-Aug-23 19:30N 36°34' W 025°23'1 1.9
2017-Aug-23 19:00N 36°34' W 025°24'3 6.9
2017-Aug-23 18:30N 36°34' W 025°28'3 7.0
2017-Aug-23 18:00N 36°34' W 025°33'3 6.8
2017-Aug-23 17:30N 36°34' W 025°37'4 7.0
2017-Aug-23 17:01N 36°34' W 025°41'3 6.8
2017-Aug-23 16:30N 36°34' W 025°45'4 7.1
2017-Aug-23 16:00N 36°34' W 025°50'4 7.2
2017-Aug-23 15:30N 36°34' W 025°54'4 7.1
2017-Aug-23 15:01N 36°35' W 025°59'4 7.1
2017-Aug-23 14:30N 36°35' W 026°03'7 6.9
2017-Aug-23 13:30N 36°35' W 026°12'4 7.2
2017-Aug-23 13:00N 36°35' W 026°16'54 6.9
2017-Aug-23 05:09N 36°34' W 027°24'3 6.9
2017-Aug-23 04:45N 36°34' W 027°27'5 6.8
2017-Aug-23 04:05N 36°34' W 027°33'2 6.9
2017-Aug-23 03:44N 36°34' W 027°36'38 4.3
2017-Aug-22 18:48N 37°05' W 028°04'11 0.6
2017-Aug-22 00:00N 37°16' W 028°04'5 5.2
2017-Aug-21 23:01N 37°14' W 027°58'10 6.6
2017-Aug-21 21:33N 37°09' W 027°48'3 7.1
2017-Aug-21 21:08N 37°07' W 027°45'  
Track history (hours):
 
Tides and Currents Weather Stations Pressure Air Temp Water Temp Dewpoint Dewpoint Depression Visibility Wind Speed Wind Dir Waves Ship Positions

Oceanographic research ship D. Carlos I (Portugal)

Detailed information on ship capabilities available from University of Delaware's Ocean Information Center.

Last reported at 2017-Aug-31 14:44 UTC. Time now 2017-Sep-26 18:09 UTC.
Position N 38°40' W 009°09'.
Warning: this ship's position is 26 days out of date.

Length 70 m; draft 6 m.

Type: Other ship. MMSI: 263144000.

Date/timePositionNaut miles runAvg speedWind from/ knotsBaromVisibWave heightAir tempDewpointWater temp
2017-Aug-31 14:44N 38°40' W 009°09'0 0.5
2017-Aug-31 14:31N 38°40' W 009°09'1 2.8
2017-Aug-31 14:01N 38°42' W 009°09'4 6.3
2017-Aug-31 13:23N 38°41' W 009°14'3 6.7
2017-Aug-31 13:00N 38°41' W 009°17'3 6.9
2017-Aug-31 12:31N 38°39' W 009°21'4 7.5
2017-Aug-31 12:00N 38°36' W 009°24'4 7.6
2017-Aug-31 11:31N 38°35' W 009°29'4 7.4
2017-Aug-31 11:01N 38°35' W 009°34'4 7.5
2017-Aug-31 10:30N 38°35' W 009°38'4 7.6
2017-Aug-31 10:00N 38°35' W 009°43'4 7.4
2017-Aug-31 09:31N 38°34' W 009°48'4 7.8
2017-Aug-31 09:00N 38°34' W 009°53'4 7.8
2017-Aug-31 08:30N 38°34' W 009°58'4 7.4
2017-Aug-31 08:00N 38°33' W 010°03'4 7.4
2017-Aug-31 07:30N 38°33' W 010°07'6 7.8
2017-Aug-31 06:42N 38°33' W 010°15'4 7.9
2017-Aug-31 06:14N 38°33' W 010°20'  
2017-Aug-27 07:34N 38°42' W 025°21'0 7.0
2017-Aug-27 07:30N 38°42' W 025°22'4 7.0
2017-Aug-27 06:53N 38°43' W 025°27'3 6.8
2017-Aug-27 06:28N 38°43' W 025°31'3 6.8
2017-Aug-27 06:00N 38°43' W 025°35'4 6.9
2017-Aug-27 05:28N 38°43' W 025°40'11 6.9
2017-Aug-27 03:53N 38°43' W 025°54'3 7.3
2017-Aug-27 03:30N 38°43' W 025°58'4 7.2
2017-Aug-27 02:59N 38°43' W 026°02'3 6.9
2017-Aug-27 02:30N 38°43' W 026°06'3 6.5
2017-Aug-27 02:00N 38°43' W 026°11'3 6.7
2017-Aug-27 01:30N 38°43' W 026°15'3 6.6
2017-Aug-27 01:00N 38°43' W 026°19'4 6.6
2017-Aug-27 00:21N 38°43' W 026°25'4 6.8
2017-Aug-26 23:47N 38°43' W 026°30'2 7.0
2017-Aug-26 23:29N 38°43' W 026°32'38 0.9
2017-Aug-25 04:59N 38°23' W 027°14'3 6.9
2017-Aug-25 04:30N 38°20' W 027°16'3 6.5
2017-Aug-25 03:59N 38°18' W 027°19'13 6.9
2017-Aug-25 02:03N 38°07' W 027°29'22 6.9
2017-Aug-24 22:51N 37°48' W 027°45'3 9.1
2017-Aug-24 22:30N 37°46' W 027°42'6 9.7
2017-Aug-24 21:53N 37°41' W 027°47'615.3
2017-Aug-24 21:30N 37°37' W 027°52'1019.6
2017-Aug-24 21:01N 37°45' W 027°45'5 9.4
2017-Aug-24 20:30N 37°46' W 027°39'4 8.9
2017-Aug-24 20:00N 37°50' W 027°37'3 6.0
2017-Aug-24 19:30N 37°48' W 027°34'3 5.5
2017-Aug-24 19:00N 37°47' W 027°31'510.1
2017-Aug-24 18:30N 37°49' W 027°25'5 9.7
2017-Aug-24 18:00N 37°54' W 027°24'712.6
2017-Aug-24 17:29N 37°59' W 027°18'7 5.2
2017-Aug-24 16:05N 38°01' W 027°09'628.2
2017-Aug-24 15:52N 38°04' W 027°03'3 5.8
2017-Aug-24 15:22N 38°06' W 027°05'513.8
2017-Aug-24 15:00N 38°06' W 026°59'4 8.4
2017-Aug-24 14:30N 38°09' W 026°55'4 7.8
2017-Aug-24 14:00N 38°10' W 026°50'1 1.1
2017-Aug-24 13:29N 38°10' W 026°51'2 5.1
2017-Aug-24 13:00N 38°08' W 026°48'510.0
2017-Aug-24 12:30N 38°05' W 026°43'3 6.9
2017-Aug-24 12:00N 38°03' W 026°40'4 7.6
2017-Aug-24 11:30N 38°01' W 026°36'3 6.8
2017-Aug-24 11:01N 38°02' W 026°32'4 8.1
2017-Aug-24 10:30N 37°58' W 026°30'511.1
2017-Aug-24 10:00N 37°53' W 026°26'3 5.8
2017-Aug-24 09:31N 37°54' W 026°23'510.2
2017-Aug-24 09:00N 37°50' W 026°19'3 6.6
2017-Aug-24 08:29N 37°51' W 026°14'3 7.2
2017-Aug-24 08:00N 37°48' W 026°11'3 5.8
2017-Aug-24 07:30N 37°47' W 026°08'816.7
2017-Aug-24 07:01N 37°40' W 026°03'3 6.4
2017-Aug-24 06:30N 37°38' W 025°60'2 4.8
2017-Aug-24 06:00N 37°39' W 025°57'4 7.7
2017-Aug-24 05:30N 37°40' W 025°52'5 9.8
2017-Aug-24 05:01N 37°35' W 025°51'510.1
2017-Aug-24 04:30N 37°30' W 025°51'6 5.3
2017-Aug-24 03:28N 37°24' W 025°50'3 6.6
2017-Aug-24 03:01N 37°21' W 025°49'4 7.2
2017-Aug-24 02:30N 37°18' W 025°46'4 7.1
2017-Aug-24 02:00N 37°15' W 025°44'4 7.2
2017-Aug-24 01:30N 37°12' W 025°41'3 6.9
2017-Aug-24 01:00N 37°10' W 025°39'4 7.2
2017-Aug-24 00:30N 37°07' W 025°36'4 7.2
2017-Aug-24 00:00N 37°04' W 025°33'4 7.4
2017-Aug-23 23:31N 37°01' W 025°31'4 7.3
2017-Aug-23 23:00N 36°58' W 025°28'4 7.3
2017-Aug-23 22:30N 36°55' W 025°25'4 7.1
2017-Aug-23 22:00N 36°52' W 025°23'4 7.2
2017-Aug-23 21:30N 36°48' W 025°23'4 7.1
2017-Aug-23 21:00N 36°45' W 025°23'3 6.9
2017-Aug-23 20:30N 36°41' W 025°23'4 7.1
2017-Aug-23 20:00N 36°38' W 025°23'4 7.0
2017-Aug-23 19:30N 36°34' W 025°23'1 1.9
2017-Aug-23 19:00N 36°34' W 025°24'3 6.9
2017-Aug-23 18:30N 36°34' W 025°28'3 7.0
2017-Aug-23 18:00N 36°34' W 025°33'3 6.8
2017-Aug-23 17:30N 36°34' W 025°37'4 7.0
2017-Aug-23 17:01N 36°34' W 025°41'3 6.8
2017-Aug-23 16:30N 36°34' W 025°45'4 7.1
2017-Aug-23 16:00N 36°34' W 025°50'4 7.2
2017-Aug-23 15:30N 36°34' W 025°54'4 7.1
2017-Aug-23 15:01N 36°35' W 025°59'4 7.1
2017-Aug-23 14:30N 36°35' W 026°03'7 6.9
2017-Aug-23 13:30N 36°35' W 026°12'4 7.2
2017-Aug-23 13:00N 36°35' W 026°16'54 6.9
2017-Aug-23 05:09N 36°34' W 027°24'3 6.9
2017-Aug-23 04:45N 36°34' W 027°27'5 6.8
2017-Aug-23 04:05N 36°34' W 027°33'2 6.9
2017-Aug-23 03:44N 36°34' W 027°36'38 4.3
2017-Aug-22 18:48N 37°05' W 028°04'11 0.6
2017-Aug-22 00:00N 37°16' W 028°04'5 5.2
2017-Aug-21 23:01N 37°14' W 027°58'10 6.6
2017-Aug-21 21:33N 37°09' W 027°48'3 7.1
2017-Aug-21 21:08N 37°07' W 027°45'  

Dump ship's entire track history